Time;durP1;ratioP1;P1;durP2;ratioP2;P2;SDS_P1;SDS_P2;PMS_P1;PMS_P2;Temp;Humidity;BMP_temperature;BMP_pressure;BME280_temperature;BME280_humidity;BME280_pressure;Samples;Min_cycle;Max_cycle;Signal;HPM_P1;HPM_P2
2022/09/03 00:00:07;904577.00;3.02;1564.16;68555.00;0.23;119.26;;;;;22.70;1.00;;;;;;2270511;61;1984;-88
2022/09/03 00:07:42;216062.00;0.72;373.57;0.00;0.00;0.62;;;;;23.00;1.00;;;;;;2270315;61;1410;-89
2022/09/03 00:12:42;478481.00;1.59;824.78;0.00;0.00;0.62;;;;;23.30;1.00;;;;;;2270553;61;1349;-89
2022/09/03 00:20:15;300777.00;1.00;519.26;0.00;0.00;0.62;;;;;23.50;1.00;;;;;;2270188;61;1974;-88
2022/09/03 00:22:46;225173.00;0.75;389.24;0.00;0.00;0.62;;;;;23.40;1.00;;;;;;2280581;56;3732;-88
2022/09/03 00:25:18;189015.00;0.63;327.01;0.00;0.00;0.62;;;;;23.40;1.00;;;;;;2272632;61;950;-88
2022/09/03 00:30:17;290543.00;0.97;501.66;57774.00;0.19;100.63;;;;;23.40;1.00;;;;;;2281714;55;3756;-89
2022/09/03 00:55:37;917907.00;3.06;1587.59;0.00;0.00;0.62;;;;;22.40;1.00;;;;;;819878;40;3464;-89
2022/09/03 01:28:26;620536.00;2.07;1069.69;0.00;0.00;0.62;;;;;23.60;1.00;;;;;;2270748;61;1175;-89
2022/09/03 01:31:04;41999.00;0.14;73.35;0.00;0.00;0.62;;;;;23.60;1.00;;;;;;2265060;61;2216;-87
2022/09/03 01:46:12;812737.00;2.71;1403.35;19471.00;0.06;34.35;;;;;23.40;1.00;;;;;;2297360;40;3635;-87
2022/09/03 01:51:20;928523.00;3.10;1606.27;71335.00;0.24;124.07;;;;;23.60;1.00;;;;;;2299719;40;3523;-89
2022/09/03 02:08:49;677005.00;2.26;1167.39;0.00;0.00;0.62;;;;;23.40;1.00;;;;;;2278938;61;1222;-88
2022/09/03 02:11:16;86306.00;0.29;149.93;0.00;0.00;0.62;;;;;23.30;1.00;;;;;;2277051;61;1337;-87
2022/09/03 02:13:48;226969.00;0.76;392.33;0.00;0.00;0.62;;;;;23.40;1.00;;;;;;2277082;61;1043;-87
2022/09/03 02:16:19;83736.00;0.28;145.49;0.00;0.00;0.62;;;;;23.50;1.00;;;;;;2278942;40;3623;-89
2022/09/03 02:23:56;73927.00;0.25;128.55;0.00;0.00;0.62;;;;;23.20;1.00;;;;;;1461825;55;3111;-88
2022/09/03 02:41:26;850141.00;2.83;1468.71;44652.00;0.15;77.94;;;;;23.20;1.00;;;;;;2321250;55;3613;-87
2022/09/03 02:51:34;814235.00;2.71;1405.96;0.00;0.00;0.62;;;;;23.10;1.00;;;;;;1901070;40;3469;-87
2022/09/03 02:59:09;792843.00;2.64;1368.64;0.00;0.00;0.62;;;;;23.20;1.00;;;;;;2288895;40;3532;-87
2022/09/03 03:04:10;513715.00;1.71;885.44;0.00;0.00;0.62;;;;;23.30;1.00;;;;;;2278694;61;1344;-87
2022/09/03 03:09:10;856264.00;2.85;1479.43;0.00;0.00;0.62;;;;;23.40;1.00;;;;;;2303449;40;3564;-89
2022/09/03 03:14:13;692551.00;2.31;1194.32;0.00;0.00;0.62;;;;;23.40;1.00;;;;;;1970669;56;3559;-87
2022/09/03 03:31:46;429477.00;1.43;740.49;0.00;0.00;0.62;;;;;22.80;1.00;;;;;;2344793;55;3693;-89
2022/09/03 03:34:13;155597.00;0.52;269.45;0.00;0.00;0.62;;;;;22.90;1.00;;;;;;2283919;55;3781;-88
2022/09/03 03:36:40;136957.00;0.46;237.32;0.00;0.00;0.62;;;;;23.00;1.00;;;;;;2287699;55;3798;-86
2022/09/03 03:51:44;712943.00;2.38;1229.69;0.00;0.00;0.62;;;;;22.00;1.00;;;;;;1391384;56;3612;-87
2022/09/03 03:59:13;989868.00;3.30;1714.54;0.00;0.00;0.62;;;;;22.20;1.00;;;;;;2283222;56;3635;-85
2022/09/03 04:01:40;333967.00;1.11;576.30;0.00;0.00;0.62;;;;;22.20;1.00;;;;;;2277100;61;1978;-88
2022/09/03 04:09:09;1062779.00;3.54;1843.99;211113.00;0.70;365.05;;;;;22.50;1.00;;;;;;2276767;61;1322;-88
2022/09/03 04:19:06;915133.00;3.05;1582.71;74104.00;0.25;128.85;;;;;21.70;1.00;;;;;;2275300;61;1325;-90
2022/09/03 04:21:33;333426.00;1.11;575.37;74317.00;0.25;129.22;;;;;21.70;1.00;;;;;;2273352;61;1996;-88
2022/09/03 04:24:00;393025.00;1.31;677.81;59313.00;0.20;103.29;;;;;22.00;1.00;;;;;;2328709;41;3624;-87
2022/09/03 04:46:32;415011.00;1.38;715.61;0.00;0.00;0.62;;;;;22.10;1.00;;;;;;2274269;61;1399;-87
2022/09/03 04:54:02;606475.00;2.02;1045.40;0.00;0.00;0.62;;;;;22.40;1.00;;;;;;829498;41;3438;-87
2022/09/03 05:01:31;558658.00;1.86;962.89;0.00;0.00;0.62;;;;;22.40;1.00;;;;;;2300363;40;3574;-88
2022/09/03 05:11:37;507700.00;1.69;875.08;0.00;0.00;0.62;;;;;22.80;1.00;;;;;;2276951;40;3567;-88
2022/09/03 05:36:37;1006376.00;3.35;1743.77;120802.00;0.40;209.47;;;;;20.90;1.00;;;;;;2275920;56;3689;-87
2022/09/03 05:39:05;234707.00;0.78;405.65;73068.00;0.24;127.06;;;;;20.90;1.00;;;;;;2284307;55;3745;-86
2022/09/03 06:09:01;1264129.00;4.21;2206.61;0.00;0.00;0.62;;;;;23.10;1.00;;;;;;2278052;61;1398;-88
2022/09/03 06:18:56;1562994.00;5.21;2762.22;50431.00;0.17;87.93;;;;;23.10;1.00;;;;;;1982476;56;3524;-88
2022/09/03 06:21:23;1154647.00;3.85;2008.43;52997.00;0.18;92.37;;;;;23.30;1.00;;;;;;2294257;40;3776;-88
2022/09/03 06:23:52;1155841.00;3.85;2010.58;4205.00;0.01;7.91;;;;;23.30;1.00;;;;;;2298165;55;3780;-86
2022/09/03 06:31:23;2210598.00;7.37;4066.10;163499.00;0.54;283.07;;;;;23.30;1.00;;;;;;2277656;61;1334;-88
2022/09/03 06:58:58;1040888.00;3.47;1805.03;127549.00;0.43;221.10;;;;;24.10;1.00;;;;;;2292479;55;3681;-87
2022/09/03 07:01:28;1001428.00;3.34;1735.00;105662.00;0.35;183.34;;;;;24.40;1.00;;;;;;2278875;40;3662;-89
2022/09/03 07:13:56;1137467.00;3.79;1977.56;104391.00;0.35;181.15;;;;;23.80;1.00;;;;;;2278814;61;1185;-89
2022/09/03 07:23:56;1571059.00;5.24;2777.56;169170.00;0.56;292.84;;;;;24.10;1.00;;;;;;2277516;61;1216;-87
2022/09/03 07:26:29;890761.00;2.97;1539.90;42686.00;0.14;74.54;;;;;23.80;1.00;;;;;;2277699;55;3797;-87
2022/09/03 07:29:01;1238042.00;4.13;2159.15;100371.00;0.33;174.21;;;;;24.00;1.00;;;;;;2276218;61;1447;-88
2022/09/03 07:33:58;1105369.00;3.68;1920.03;39080.00;0.13;68.30;;;;;24.20;1.00;;;;;;2277465;61;1398;-88
2022/09/03 07:41:25;1347108.00;4.49;2358.58;91232.00;0.30;158.43;;;;;23.90;1.00;;;;;;2282477;55;3646;-88
2022/09/03 07:58:55;1085587.00;3.62;1884.67;91283.00;0.30;158.52;;;;;24.00;1.00;;;;;;2283399;55;3582;-86
2022/09/03 08:01:24;895614.00;2.99;1548.42;70704.00;0.24;122.98;;;;;24.10;1.00;;;;;;2276545;61;2018;-87
2022/09/03 08:11:20;941692.00;3.14;1629.47;34153.00;0.11;59.77;;;;;24.10;1.00;;;;;;2282752;55;3605;-87
2022/09/03 08:16:24;1171528.00;3.91;2038.83;85388.00;0.28;148.34;;;;;24.60;1.00;;;;;;2277933;61;1343;-87
2022/09/03 08:21:21;665013.00;2.22;1146.62;0.00;0.00;0.62;;;;;24.80;1.00;;;;;;2283264;55;3699;-87
2022/09/03 08:23:49;914293.00;3.05;1581.24;61766.00;0.21;107.53;;;;;24.70;1.00;;;;;;2280865;61;1015;-88
2022/09/03 08:26:18;672589.00;2.24;1159.74;9031.00;0.03;16.27;;;;;24.80;1.00;;;;;;2280729;61;1013;-87
2022/09/03 08:36:13;1372911.00;4.58;2406.18;43004.00;0.14;75.09;;;;;24.90;1.00;;;;;;2274348;61;1347;-88
2022/09/03 08:38:42;837979.00;2.79;1447.44;99868.00;0.33;173.34;;;;;25.00;1.00;;;;;;2274121;55;3718;-87
2022/09/03 08:43:59;602178.00;2.01;1037.98;29382.00;0.10;51.51;;;;;25.10;1.00;;;;;;2278386;61;1324;-88
2022/09/03 08:46:38;903671.00;3.01;1562.57;54859.00;0.18;95.59;;;;;25.60;1.00;;;;;;2276687;61;986;-87
2022/09/03 08:49:09;585531.00;1.95;1009.24;30048.00;0.10;52.67;;;;;25.30;1.00;;;;;;2276375;61;1468;-87
2022/09/03 08:51:39;728152.00;2.43;1256.09;59740.00;0.20;104.03;;;;;25.50;1.00;;;;;;2276581;61;955;-89
2022/09/03 08:54:09;415992.00;1.39;717.30;16618.00;0.06;29.41;;;;;25.70;1.00;;;;;;2291098;40;3761;-87
2022/09/03 08:56:40;522389.00;1.74;900.38;0.00;0.00;0.62;;;;;25.40;1.00;;;;;;2276594;61;1107;-86
2022/09/03 08:59:08;835666.00;2.79;1443.40;76262.00;0.25;132.58;;;;;25.70;1.00;;;;;;2276573;61;1489;-87
2022/09/03 09:01:50;638480.00;2.13;1100.71;61642.00;0.21;107.32;;;;;26.00;1.00;;;;;;2276377;61;1990;-87
2022/09/03 09:04:33;838680.00;2.80;1448.67;141567.00;0.47;245.27;;;;;26.80;1.00;;;;;;2276509;61;1723;-87
2022/09/03 09:07:10;233788.00;0.78;404.07;0.00;0.00;0.62;;;;;27.00;1.00;;;;;;2276553;61;1571;-88
2022/09/03 09:09:48;90392.00;0.30;156.98;0.00;0.00;0.62;;;;;27.50;1.00;;;;;;2276412;61;1657;-89
2022/09/03 09:12:29;309263.00;1.03;533.84;0.00;0.00;0.62;;;;;28.60;1.00;;;;;;2293419;40;3658;-90
2022/09/03 09:15:08;261651.00;0.87;451.99;0.00;0.00;0.62;;;;;28.20;1.00;;;;;;2281487;55;3785;-86
2022/09/03 09:18:04;363356.00;1.21;626.82;0.00;0.00;0.62;;;;;28.00;1.00;;;;;;2285300;40;3758;-86
2022/09/03 09:20:41;108980.00;0.36;189.07;0.00;0.00;0.62;;;;;27.70;1.00;;;;;;2280397;61;1438;-91
2022/09/03 09:25:48;436017.00;1.45;751.73;0.00;0.00;0.62;;;;;28.00;1.00;;;;;;2278033;61;1319;-89
2022/09/03 09:28:19;5320.00;0.02;9.84;0.00;0.00;0.62;;;;;27.80;1.00;;;;;;2276445;61;1236;-88
2022/09/03 09:33:17;760164.00;2.53;1311.74;0.00;0.00;0.62;;;;;28.00;1.00;;;;;;2274087;61;1413;-87
2022/09/03 09:35:45;201054.00;0.67;347.74;0.00;0.00;0.62;;;;;28.20;1.00;;;;;;2282338;40;3819;-88
2022/09/03 09:40:45;871063.00;2.90;1505.35;0.00;0.00;0.62;;;;;28.00;1.00;;;;;;2283735;40;3506;-87
2022/09/03 09:43:14;48814.00;0.16;85.14;0.00;0.00;0.62;;;;;28.30;1.00;;;;;;2346309;40;3496;-89
2022/09/03 09:45:44;180629.00;0.60;312.57;0.00;0.00;0.62;;;;;28.50;1.00;;;;;;2313693;56;3822;-88
2022/09/03 09:50:40;439866.00;1.47;758.35;0.00;0.00;0.62;;;;;28.40;1.00;;;;;;2286018;55;3646;-88
2022/09/03 09:58:10;908548.00;3.03;1571.14;15202.00;0.05;26.96;;;;;28.50;1.00;;;;;;2290719;55;3681;-88
2022/09/03 10:03:12;1531491.00;5.10;2702.52;0.00;0.00;0.62;;;;;28.80;1.00;;;;;;2278516;61;1883;-90
2022/09/03 10:05:43;264949.00;0.88;457.66;0.00;0.00;0.62;;;;;28.90;1.00;;;;;;2277038;61;1638;-89
2022/09/03 10:38:17;1113817.00;3.71;1935.15;63970.00;0.21;111.34;;;;;28.60;1.00;;;;;;2296046;41;4195;-87
2022/09/03 10:53:43;1403870.00;4.68;2463.50;0.00;0.00;0.62;;;;;29.10;1.00;;;;;;2278391;61;1154;-90
2022/09/03 10:56:17;368330.00;1.23;635.37;0.00;0.00;0.62;;;;;28.70;1.00;;;;;;2292812;56;3762;-89
2022/09/03 11:03:50;1052815.00;3.51;1826.24;0.00;0.00;0.62;;;;;28.60;1.00;;;;;;2270506;61;1313;-89
2022/09/03 11:08:59;308789.00;1.03;533.03;0.00;0.00;0.62;;;;;28.60;1.00;;;;;;2270459;61;1325;-87
2022/09/03 11:16:33;1154265.00;3.85;2007.75;103483.00;0.34;179.58;;;;;28.80;1.00;;;;;;2281773;56;3647;-87
2022/09/03 11:19:05;361840.00;1.21;624.21;0.00;0.00;0.62;;;;;29.20;1.00;;;;;;2283995;56;3799;-88
2022/09/03 11:26:38;700383.00;2.33;1207.90;0.00;0.00;0.62;;;;;28.70;1.00;;;;;;2280329;55;3688;-89
2022/09/03 11:31:56;279723.00;0.93;483.06;0.00;0.00;0.62;;;;;28.80;1.00;;;;;;2278599;61;1240;-89
2022/09/03 13:28:10;1646138.00;5.49;2921.24;105549.00;0.35;183.15;;;;;23.20;1.00;;;;;;2274604;61;973;-93
2022/09/03 14:36:07;371472.00;1.24;640.77;0.00;0.00;0.62;;;;;26.00;1.00;;;;;;2277855;61;1390;-88
2022/09/03 14:41:32;386514.00;1.29;666.62;0.00;0.00;0.62;;;;;25.40;1.00;;;;;;1579420;56;3552;-87
2022/09/03 14:51:47;961388.00;3.20;1664.20;68674.00;0.23;119.47;;;;;25.50;1.00;;;;;;2295495;40;3483;-88
2022/09/03 14:59:33;846617.00;2.82;1462.55;0.00;0.00;0.62;;;;;25.60;1.00;;;;;;2329207;55;3661;-87
2022/09/03 15:09:52;793571.00;2.65;1369.91;0.00;0.00;0.62;;;;;24.90;1.00;;;;;;2313724;55;3673;-87
2022/09/03 15:12:24;135931.00;0.45;235.56;0.00;0.00;0.62;;;;;25.00;1.00;;;;;;2272213;61;1046;-89
2022/09/03 15:14:56;107771.00;0.36;186.98;0.00;0.00;0.62;;;;;25.00;1.00;;;;;;2277949;40;3658;-88
2022/09/03 15:17:40;197792.00;0.66;342.12;0.00;0.00;0.62;;;;;25.20;1.00;;;;;;2280178;61;1031;-90
2022/09/03 15:20:23;242814.00;0.81;419.59;0.00;0.00;0.62;;;;;25.60;1.00;;;;;;2280411;61;1450;-88
2022/09/03 15:30:41;1356337.00;4.52;2375.59;20263.00;0.07;35.73;;;;;25.80;1.00;;;;;;2269694;61;1412;-89
2022/09/03 15:33:18;253329.00;0.84;437.68;0.00;0.00;0.62;;;;;26.10;1.00;;;;;;2267986;61;1710;-89
2022/09/03 15:36:06;161062.00;0.54;278.87;0.00;0.00;0.62;;;;;26.20;1.00;;;;;;2268034;61;922;-86
2022/09/03 15:38:47;117012.00;0.39;202.93;0.00;0.00;0.62;;;;;25.60;1.00;;;;;;2267901;61;1293;-87
2022/09/03 15:41:31;165983.00;0.55;287.35;0.00;0.00;0.62;;;;;25.60;1.00;;;;;;2267827;61;1608;-87
2022/09/03 15:44:03;616116.00;2.05;1062.06;0.00;0.00;0.62;;;;;25.90;1.00;;;;;;2280470;40;3603;-88
2022/09/03 15:46:40;455627.00;1.52;785.46;0.00;0.00;0.62;;;;;26.10;1.00;;;;;;2294840;40;3777;-88
2022/09/03 15:49:18;486536.00;1.62;838.65;21773.00;0.07;38.34;;;;;26.40;1.00;;;;;;2275897;61;1363;-88
2022/09/03 15:51:59;236285.00;0.79;408.36;0.00;0.00;0.62;;;;;26.40;1.00;;;;;;2275955;61;1050;-87
2022/09/03 15:54:42;180102.00;0.60;311.67;0.00;0.00;0.62;;;;;26.50;1.00;;;;;;2276127;61;1605;-87
2022/09/03 15:57:18;331209.00;1.10;571.56;0.00;0.00;0.62;;;;;26.20;1.00;;;;;;2284520;40;3670;-87
2022/09/03 15:59:53;136498.00;0.45;236.53;0.00;0.00;0.62;;;;;26.20;1.00;;;;;;2276042;61;1415;-87
2022/09/03 16:02:30;197289.00;0.66;341.26;0.00;0.00;0.62;;;;;26.20;1.00;;;;;;2276150;61;2049;-87
2022/09/03 16:12:40;508055.00;1.69;875.69;0.00;0.00;0.62;;;;;26.50;1.00;;;;;;2276795;40;3551;-87
2022/09/03 16:15:14;127182.00;0.42;220.47;0.00;0.00;0.62;;;;;26.50;1.00;;;;;;2272736;61;1028;-86
2022/09/03 16:17:54;155331.00;0.52;268.99;0.00;0.00;0.62;;;;;26.60;1.00;;;;;;2272559;61;1524;-87
2022/09/03 16:20:27;203227.00;0.68;351.48;0.00;0.00;0.62;;;;;26.50;1.00;;;;;;2272623;61;1462;-88
2022/09/03 16:23:01;243808.00;0.81;421.30;70845.00;0.24;123.22;;;;;26.30;1.00;;;;;;2272666;61;1915;-87
2022/09/03 16:25:34;144544.00;0.48;250.40;0.00;0.00;0.62;;;;;26.40;1.00;;;;;;2272790;61;1795;-88
2022/09/03 16:28:08;211496.00;0.70;365.71;0.00;0.00;0.62;;;;;26.40;1.00;;;;;;2272668;61;1011;-87
2022/09/03 16:30:53;138975.00;0.46;240.80;0.00;0.00;0.62;;;;;26.40;1.00;;;;;;2272665;61;1744;-90
2022/09/03 16:33:32;250047.00;0.83;432.03;28524.00;0.10;50.03;;;;;26.50;1.00;;;;;;2272701;61;1069;-88
2022/09/03 16:36:11;50572.00;0.17;88.18;0.00;0.00;0.62;;;;;26.30;1.00;;;;;;2272848;61;1115;-88
2022/09/03 16:38:52;72956.00;0.24;126.87;0.00;0.00;0.62;;;;;26.10;1.00;;;;;;2272626;61;1463;-86
2022/09/03 16:41:27;49749.00;0.17;86.75;0.00;0.00;0.62;;;;;26.20;1.00;;;;;;2272557;61;1109;-87
2022/09/03 16:44:08;196119.00;0.65;339.24;0.00;0.00;0.62;;;;;26.20;1.00;;;;;;2272580;61;2010;-87
2022/09/03 16:49:33;558971.00;1.86;963.43;0.00;0.00;0.62;;;;;26.10;1.00;;;;;;2295205;55;3790;-87
2022/09/03 17:12:07;1431376.00;4.77;2514.64;65470.00;0.22;113.93;;;;;24.40;1.00;;;;;;2285391;55;3682;-88
2022/09/03 17:24:41;549111.00;1.83;946.43;0.00;0.00;0.62;;;;;25.10;1.00;;;;;;2276256;55;3717;-89
2022/09/03 17:27:39;197098.00;0.66;340.93;0.00;0.00;0.62;;;;;25.10;1.00;;;;;;2298699;55;3771;-87
2022/09/03 17:33:04;1492887.00;4.98;2629.74;0.00;0.00;0.62;;;;;25.10;1.00;;;;;;2285858;40;3605;-88
2022/09/03 17:35:40;84125.00;0.28;146.16;0.00;0.00;0.62;;;;;25.10;1.00;;;;;;2294996;40;3673;-87
2022/09/03 17:38:25;161982.00;0.54;280.45;0.00;0.00;0.62;;;;;25.10;1.00;;;;;;2276340;61;1029;-88
2022/09/03 17:41:06;174979.00;0.58;302.84;0.00;0.00;0.62;;;;;25.10;1.00;;;;;;2272276;61;1143;-88
2022/09/03 17:48:52;1156123.00;3.85;2011.09;0.00;0.00;0.62;;;;;25.00;1.00;;;;;;2269622;61;1388;-87
2022/09/03 17:51:44;169633.00;0.57;293.63;0.00;0.00;0.62;;;;;24.90;1.00;;;;;;2268360;61;968;-87
2022/09/03 18:09:31;572224.00;1.91;986.28;0.00;0.00;0.62;;;;;24.30;1.00;;;;;;2271016;61;1234;-88
2022/09/03 18:12:09;215109.00;0.72;371.93;0.00;0.00;0.62;;;;;24.30;1.00;;;;;;2268973;61;1629;-87
2022/09/03 20:11:56;0.00;0.00;0.62;0.00;0.00;0.62;;;;;23.20;1.00;;;;;;2280928;61;1057;-87
2022/09/03 20:14:24;107314.00;0.36;186.20;0.00;0.00;0.62;;;;;23.00;1.00;;;;;;2280970;61;969;-87
2022/09/03 20:17:06;127175.00;0.42;220.46;0.00;0.00;0.62;;;;;22.70;1.00;;;;;;2280879;61;1541;-87
2022/09/03 20:19:49;116593.00;0.39;202.21;0.00;0.00;0.62;;;;;22.60;1.00;;;;;;2280894;61;1476;-87
2022/09/03 20:22:27;140662.00;0.47;243.71;0.00;0.00;0.62;;;;;22.90;1.00;;;;;;2280936;61;1609;-87
2022/09/03 20:25:14;113929.00;0.38;197.61;0.00;0.00;0.62;;;;;23.00;1.00;;;;;;2280848;61;2040;-88
2022/09/03 20:27:54;186079.00;0.62;321.96;35169.00;0.12;61.53;;;;;23.00;1.00;;;;;;2280851;61;1651;-86
2022/09/03 20:30:23;210025.00;0.70;363.18;0.00;0.00;0.62;;;;;22.90;1.00;;;;;;2280862;61;1471;-88
2022/09/03 20:33:26;284031.00;0.95;490.47;8469.00;0.03;15.30;;;;;23.00;1.00;;;;;;2280863;61;1399;-88
2022/09/03 20:36:09;198455.00;0.66;343.26;0.00;0.00;0.62;;;;;23.00;1.00;;;;;;2278988;61;1448;-87
2022/09/03 20:39:17;924129.00;3.08;1598.54;220977.00;0.74;382.02;;;;;23.20;1.00;;;;;;2280833;61;1732;-87
2022/09/03 20:41:59;584351.00;1.95;1007.21;84013.00;0.28;145.97;;;;;23.20;1.00;;;;;;2279173;61;1127;-87
2022/09/03 20:44:48;200152.00;0.67;346.19;923.00;0.00;2.22;;;;;23.20;1.00;;;;;;2280741;61;2006;-86
2022/09/03 20:47:47;141330.00;0.47;244.86;0.00;0.00;0.62;;;;;23.30;1.00;;;;;;2280863;61;1058;-87
2022/09/03 20:50:24;121737.00;0.41;211.08;0.00;0.00;0.62;;;;;22.80;1.00;;;;;;2280726;61;1602;-88
2022/09/03 20:53:05;378671.00;1.26;653.14;70083.00;0.23;121.90;;;;;22.70;1.00;;;;;;2280871;61;1067;-88
2022/09/03 20:55:42;371598.00;1.24;640.98;83532.00;0.28;145.14;;;;;22.50;1.00;;;;;;2280755;61;2183;-89
2022/09/03 20:58:18;355191.00;1.18;612.78;70778.00;0.24;123.10;;;;;22.40;1.00;;;;;;2280845;61;1113;-86
2022/09/03 21:00:52;665844.00;2.22;1148.06;152059.00;0.51;263.36;;;;;22.20;1.00;;;;;;2280821;61;1486;-88
2022/09/03 21:03:25;327465.00;1.09;565.13;70788.00;0.24;123.12;;;;;22.30;1.00;;;;;;2280770;61;2014;-86
2022/09/03 21:06:12;388205.00;1.29;669.53;71587.00;0.24;124.50;;;;;22.40;1.00;;;;;;2280819;61;1170;-87
2022/09/03 21:09:00;337093.00;1.12;581.68;71087.00;0.24;123.64;;;;;22.30;1.00;;;;;;2280766;61;1343;-88
2022/09/03 21:11:41;537457.00;1.79;926.34;91888.00;0.31;159.57;;;;;21.90;1.00;;;;;;2280730;61;1002;-87
2022/09/03 21:14:21;439465.00;1.46;757.66;45897.00;0.15;80.09;;;;;22.00;1.00;;;;;;2280743;61;1434;-87
2022/09/03 21:17:01;755319.00;2.52;1303.31;98275.00;0.33;170.59;;;;;22.30;1.00;;;;;;2280768;61;1420;-88
2022/09/03 21:19:42;430667.00;1.44;742.53;63890.00;0.21;111.20;;;;;22.30;1.00;;;;;;2280705;61;1840;-88
2022/09/03 21:22:21;224976.00;0.75;388.91;63652.00;0.21;110.79;;;;;22.60;1.00;;;;;;2280702;61;2380;-87
2022/09/03 21:24:54;438260.00;1.46;755.59;72089.00;0.24;125.37;;;;;22.60;1.00;;;;;;2280685;61;2009;-86
2022/09/03 21:27:26;313860.00;1.05;541.74;71590.00;0.24;124.51;;;;;22.70;1.00;;;;;;2280654;61;1524;-87
2022/09/03 21:30:02;498866.00;1.66;859.87;136817.00;0.46;237.08;;;;;23.00;1.00;;;;;;2280670;61;1304;-87
2022/09/03 21:32:37;515255.00;1.72;888.09;124949.00;0.42;216.62;;;;;22.80;1.00;;;;;;2280671;61;1587;-88
2022/09/03 21:35:21;433244.00;1.44;746.96;65128.00;0.22;113.34;;;;;22.80;1.00;;;;;;2280713;61;1107;-88
2022/09/03 21:37:55;528185.00;1.76;910.36;25348.00;0.08;44.53;;;;;22.80;1.00;;;;;;2280625;61;1603;-88
2022/09/03 21:40:30;424742.00;1.42;732.34;0.00;0.00;0.62;;;;;22.60;1.00;;;;;;2280640;61;1488;-86
2022/09/03 21:43:06;124987920.00;416.63;79105752.00;0.00;0.00;0.62;;;;;22.50;1.00;;;;;;2280653;61;1982;-86
2022/09/03 21:45:44;419443.00;1.40;723.23;90887.00;0.30;157.84;;;;;22.80;1.00;;;;;;2280653;61;1041;-88
2022/09/03 21:48:18;415776.00;1.39;716.93;0.00;0.00;0.62;;;;;22.90;1.00;;;;;;2280617;61;1443;-87
2022/09/03 21:50:54;452635.00;1.51;780.32;14494.00;0.05;25.73;;;;;22.90;1.00;;;;;;2280646;61;1446;-88
2022/09/03 21:53:32;286236.00;0.95;494.26;14287.00;0.05;25.38;;;;;22.70;1.00;;;;;;2280596;61;1363;-86
2022/09/03 21:56:21;159406.00;0.53;276.02;0.00;0.00;0.62;;;;;22.60;1.00;;;;;;2280580;61;1625;-86
2022/09/03 21:59:04;483386.00;1.61;833.22;64395.00;0.21;112.07;;;;;22.70;1.00;;;;;;2280584;61;1627;-88
2022/09/03 22:01:48;149064.00;0.50;258.19;0.00;0.00;0.62;;;;;22.60;1.00;;;;;;2280687;61;961;-87
2022/09/03 22:04:15;104132.00;0.35;180.70;0.00;0.00;0.62;;;;;22.80;1.00;;;;;;2280610;61;1915;-87
2022/09/03 22:06:53;178175.00;0.59;308.35;3315.00;0.01;6.37;;;;;23.00;1.00;;;;;;2280478;61;1632;-87
2022/09/03 22:09:31;218823.00;0.73;378.32;0.00;0.00;0.62;;;;;23.10;1.00;;;;;;2280531;61;1402;-86
2022/09/03 22:12:07;139586.00;0.47;241.86;0.00;0.00;0.62;;;;;23.00;1.00;;;;;;2280407;61;1491;-87
2022/09/03 22:14:41;137365.00;0.46;238.03;0.00;0.00;0.62;;;;;23.00;1.00;;;;;;2280618;61;1005;-87
2022/09/03 22:17:17;157985.00;0.53;273.57;0.00;0.00;0.62;;;;;23.10;1.00;;;;;;2280537;61;1658;-86
2022/09/03 22:19:44;297837.00;0.99;514.20;18202.00;0.06;32.16;;;;;23.10;1.00;;;;;;2280474;61;1595;-87
2022/09/03 22:22:26;136822.00;0.46;237.09;0.00;0.00;0.62;;;;;23.00;1.00;;;;;;2280552;61;1030;-87
2022/09/03 22:25:06;246288.00;0.82;425.57;75722.00;0.25;131.65;;;;;22.80;1.00;;;;;;2280487;61;2162;-87
2022/09/03 22:27:44;202588.00;0.68;350.38;65343.00;0.22;113.71;;;;;22.60;1.00;;;;;;2280541;61;1150;-87
2022/09/03 22:30:18;251472.00;0.84;434.48;0.00;0.00;0.62;;;;;22.60;1.00;;;;;;2280421;61;1434;-85
2022/09/03 22:33:04;260664.00;0.87;450.29;46033.00;0.15;80.33;;;;;22.60;1.00;;;;;;2280427;61;1485;-86
2022/09/03 22:36:10;268025.00;0.89;462.95;32116.00;0.11;56.25;;;;;22.60;1.00;;;;;;2280470;61;1318;-86
2022/09/03 22:39:15;295294.00;0.98;509.83;82835.00;0.28;143.93;;;;;22.70;1.00;;;;;;2278670;61;1360;-87
2022/09/03 22:42:05;267517.00;0.89;462.07;39384.00;0.13;68.82;;;;;22.50;1.00;;;;;;2280263;61;1365;-87
2022/09/03 22:44:56;159885.00;0.53;276.84;0.00;0.00;0.62;;;;;22.70;1.00;;;;;;2280446;61;2002;-88
2022/09/03 22:47:35;331401.00;1.10;571.89;69918.00;0.23;121.62;;;;;22.60;1.00;;;;;;2280496;61;1576;-87
2022/09/03 22:50:18;237934.00;0.79;411.20;34259.00;0.11;59.95;;;;;22.60;1.00;;;;;;2280420;61;1620;-87
2022/09/03 22:52:54;247270.00;0.82;427.26;32106.00;0.11;56.23;;;;;22.50;1.00;;;;;;2280409;61;1418;-88
2022/09/03 22:55:25;170823.00;0.57;295.68;35788.00;0.12;62.60;;;;;22.50;1.00;;;;;;2280441;61;1033;-87
2022/09/03 22:58:01;186126.00;0.62;322.04;58210.00;0.19;101.38;;;;;22.40;1.00;;;;;;2280463;61;1441;-85
2022/09/03 23:00:30;214615.00;0.72;371.08;72828.00;0.24;126.65;;;;;22.30;1.00;;;;;;2280432;61;1322;-88
2022/09/03 23:03:07;349515.00;1.17;603.03;34857.00;0.12;60.99;;;;;22.30;1.00;;;;;;2280480;61;1025;-87
2022/09/03 23:05:46;206073.00;0.69;356.38;0.00;0.00;0.62;;;;;22.30;1.00;;;;;;2280477;61;1939;-88
2022/09/03 23:08:20;145369.00;0.48;251.83;0.00;0.00;0.62;;;;;22.30;1.00;;;;;;2280445;61;1488;-88
2022/09/03 23:11:01;207142.00;0.69;358.22;0.00;0.00;0.62;;;;;22.40;1.00;;;;;;2280335;61;1325;-88
2022/09/03 23:13:40;327166.00;1.09;564.62;75387.00;0.25;131.07;;;;;22.40;1.00;;;;;;2280415;61;1502;-86
2022/09/03 23:16:17;366870.00;1.22;632.86;67919.00;0.23;118.16;;;;;22.40;1.00;;;;;;2280351;61;1436;-87
2022/09/03 23:18:48;259139.00;0.86;447.67;71926.00;0.24;125.09;;;;;22.40;1.00;;;;;;2280385;61;1447;-86
2022/09/03 23:21:23;412028.00;1.37;710.48;64387.00;0.21;112.06;;;;;22.50;1.00;;;;;;2281059;61;1438;-87
2022/09/03 23:24:01;286259.00;0.95;494.30;67304.00;0.22;117.10;;;;;22.50;1.00;;;;;;2281074;61;2012;-87
2022/09/03 23:26:37;367994.00;1.23;634.79;74555.00;0.25;129.63;;;;;22.60;1.00;;;;;;2281126;61;1626;-87
2022/09/03 23:29:12;611332.00;2.04;1053.79;123519.00;0.41;214.15;;;;;22.50;1.00;;;;;;2281026;61;1556;-87
2022/09/03 23:31:42;755952.00;2.52;1304.41;71975.00;0.24;125.17;;;;;22.50;1.00;;;;;;2281086;61;1536;-87
2022/09/03 23:34:11;732376.00;2.44;1263.43;136083.00;0.45;235.82;;;;;22.50;1.00;;;;;;2281122;61;1046;-88
2022/09/03 23:37:18;586258.00;1.95;1010.50;66804.00;0.22;116.24;;;;;22.50;1.00;;;;;;2281113;61;1358;-88
2022/09/03 23:40:13;179023.00;0.60;309.81;0.00;0.00;0.62;;;;;22.50;1.00;;;;;;2281053;61;1562;-88
2022/09/03 23:43:18;143500.00;0.48;248.60;0.00;0.00;0.62;;;;;22.50;1.00;;;;;;2281080;61;1113;-88
2022/09/03 23:45:59;235491.00;0.78;406.99;0.00;0.00;0.62;;;;;22.40;1.00;;;;;;2277637;61;2013;-87
2022/09/03 23:48:40;240614.00;0.80;415.81;0.00;0.00;0.62;;;;;22.50;1.00;;;;;;2281039;61;1425;-87
2022/09/03 23:51:21;241619.00;0.81;417.54;46715.00;0.16;81.50;;;;;22.50;1.00;;;;;;2281099;61;1026;-87
2022/09/03 23:54:01;101169.00;0.34;175.59;0.00;0.00;0.62;;;;;22.30;1.00;;;;;;2281007;61;972;-87
2022/09/03 23:56:51;151137.00;0.50;261.77;0.00;0.00;0.62;;;;;22.20;1.00;;;;;;2281077;61;966;-89
2022/09/03 23:59:29;261230.00;0.87;451.26;82748.00;0.28;143.78;;;;;22.10;1.00;;;;;;2280972;61;2159;-88
